Time;durP1;ratioP1;P1;durP2;ratioP2;P2;SDS_P1;SDS_P2;PMS_P1;PMS_P2;Temp;Humidity;BMP_temperature;BMP_pressure;BME280_temperature;BME280_humidity;BME280_pressure;Samples;Min_cycle;Max_cycle;Signal;HPM_P1;HPM_P2
2023/03/02 00:00:57;;;;;;;;;59.00;44.00;;;;;;;;4986075;28;8837;-79
2023/03/02 00:03:24;;;;;;;;;61.75;46.50;;;;;;;;4981828;28;8869;-79
2023/03/02 00:05:52;;;;;;;;;56.67;43.67;;;;;;;;4979574;28;8874;-78
2023/03/02 00:08:19;;;;;;;;;44.67;40.33;;;;;;;;4970167;28;8876;-79
2023/03/02 00:10:47;;;;;;;;;52.67;43.67;;;;;;;;4984982;28;8873;-79
2023/03/02 00:13:16;;;;;;;;;43.00;40.67;;;;;;;;4982450;28;8874;-79
2023/03/02 00:15:44;;;;;;;;;43.33;40.67;;;;;;;;4988561;28;8883;-79
2023/03/02 00:18:11;;;;;;;;;42.33;37.67;;;;;;;;4983513;28;8858;-80
2023/03/02 00:20:39;;;;;;;;;46.00;35.00;;;;;;;;4982798;28;8928;-80
2023/03/02 00:23:07;;;;;;;;;45.33;42.33;;;;;;;;4965107;28;9075;-82
2023/03/02 00:25:36;;;;;;;;;45.00;42.67;;;;;;;;4986486;28;8871;-79
2023/03/02 00:28:04;;;;;;;;;47.67;40.67;;;;;;;;4980802;28;8894;-79
2023/03/02 00:30:33;;;;;;;;;46.67;40.33;;;;;;;;4961221;28;8897;-79
2023/03/02 00:33:01;;;;;;;;;40.67;38.00;;;;;;;;4981165;28;8880;-78
2023/03/02 00:35:30;;;;;;;;;44.33;41.33;;;;;;;;4985020;28;8904;-78
2023/03/02 00:37:57;;;;;;;;;43.33;40.00;;;;;;;;4984714;28;9004;-79
2023/03/02 00:40:25;;;;;;;;;41.00;39.33;;;;;;;;4968280;28;8888;-79
2023/03/02 00:42:52;;;;;;;;;44.33;43.33;;;;;;;;4982956;28;8881;-79
2023/03/02 00:45:19;;;;;;;;;33.33;33.33;;;;;;;;4982375;28;8861;-78
2023/03/02 00:47:48;;;;;;;;;44.67;41.67;;;;;;;;4960897;28;9003;-79
2023/03/02 00:50:16;;;;;;;;;50.25;44.25;;;;;;;;4979714;28;8993;-77
2023/03/02 00:52:45;;;;;;;;;40.33;39.33;;;;;;;;4981162;28;8866;-79
2023/03/02 00:55:12;;;;;;;;;42.67;41.33;;;;;;;;4986672;28;8885;-78
2023/03/02 00:57:40;;;;;;;;;41.67;36.33;;;;;;;;4980945;28;8882;-79
2023/03/02 01:00:09;;;;;;;;;54.75;47.50;;;;;;;;4979926;28;8865;-79
2023/03/02 01:02:42;;;;;;;;;43.25;41.50;;;;;;;;4982958;28;8834;-79
2023/03/02 01:05:15;;;;;;;;;51.25;44.75;;;;;;;;4984291;28;8868;-79
2023/03/02 01:07:47;;;;;;;;;43.00;40.00;;;;;;;;4977023;28;8871;-79
2023/03/02 01:10:15;;;;;;;;;37.00;35.50;;;;;;;;4979493;28;8872;-80
2023/03/02 01:12:43;;;;;;;;;47.25;42.25;;;;;;;;4979792;28;8896;-80
2023/03/02 01:15:12;;;;;;;;;47.25;41.00;;;;;;;;4966073;28;8881;-78
2023/03/02 01:17:41;;;;;;;;;40.67;38.67;;;;;;;;4980553;28;8976;-79
2023/03/02 01:20:16;;;;;;;;;47.25;41.25;;;;;;;;4977061;28;8826;-79
2023/03/02 01:22:44;;;;;;;;;35.33;35.33;;;;;;;;4979211;28;9647;-78
2023/03/02 01:25:12;;;;;;;;;55.50;47.00;;;;;;;;4979314;28;8877;-79
2023/03/02 01:27:40;;;;;;;;;56.50;48.25;;;;;;;;4980405;28;8873;-78
2023/03/02 01:30:09;;;;;;;;;40.25;39.50;;;;;;;;4981495;28;8888;-78
2023/03/02 01:32:37;;;;;;;;;35.75;35.75;;;;;;;;4977900;28;8943;-79
2023/03/02 01:35:06;;;;;;;;;46.50;40.75;;;;;;;;4984772;28;8865;-80
2023/03/02 01:37:35;;;;;;;;;46.25;44.25;;;;;;;;4945569;28;8865;-79
2023/03/02 01:40:04;;;;;;;;;42.00;41.25;;;;;;;;4981005;28;8861;-79
2023/03/02 01:42:35;;;;;;;;;56.00;49.00;;;;;;;;4982120;28;8865;-78
2023/03/02 01:45:03;;;;;;;;;41.75;41.75;;;;;;;;4977838;28;8883;-78
2023/03/02 01:47:36;;;;;;;;;47.50;44.50;;;;;;;;4976531;28;8873;-80
2023/03/02 01:50:10;;;;;;;;;45.75;43.25;;;;;;;;4975934;28;8995;-80
2023/03/02 01:52:39;;;;;;;;;47.00;44.00;;;;;;;;4977279;28;9054;-79
2023/03/02 01:55:09;;;;;;;;;47.50;43.75;;;;;;;;4979736;28;8869;-81
2023/03/02 01:57:42;;;;;;;;;52.00;46.00;;;;;;;;4979274;28;8877;-80
2023/03/02 02:00:18;;;;;;;;;53.50;48.00;;;;;;;;4978483;28;8908;-80
2023/03/02 02:02:46;;;;;;;;;55.50;49.00;;;;;;;;4972985;28;8877;-79
2023/03/02 02:05:18;;;;;;;;;54.50;48.75;;;;;;;;4981849;28;8865;-78
2023/03/02 02:07:47;;;;;;;;;55.50;46.50;;;;;;;;4971238;28;8884;-79
2023/03/02 02:10:15;;;;;;;;;55.25;46.00;;;;;;;;4977478;28;8884;-78
2023/03/02 02:12:43;;;;;;;;;66.00;53.25;;;;;;;;4976670;28;8877;-81
2023/03/02 02:15:13;;;;;;;;;54.75;47.50;;;;;;;;4973698;28;8875;-77
2023/03/02 02:17:41;;;;;;;;;57.75;49.25;;;;;;;;4975439;28;8881;-83
2023/03/02 02:20:18;;;;;;;;;54.50;46.50;;;;;;;;4973567;28;8968;-78
2023/03/02 02:22:57;;;;;;;;;61.25;52.00;;;;;;;;4979751;28;8993;-79
2023/03/02 02:25:38;;;;;;;;;53.50;45.75;;;;;;;;4962387;28;8863;-78
2023/03/02 02:28:12;;;;;;;;;51.75;46.50;;;;;;;;4974122;28;8837;-79
2023/03/02 02:30:42;;;;;;;;;46.25;44.50;;;;;;;;4974366;28;8872;-78
2023/03/02 02:33:16;;;;;;;;;50.25;46.25;;;;;;;;4972307;28;8881;-79
2023/03/02 02:35:48;;;;;;;;;58.00;50.50;;;;;;;;4976865;28;9722;-79
2023/03/02 02:38:19;;;;;;;;;54.00;47.50;;;;;;;;4980957;28;9019;-80
2023/03/02 02:40:50;;;;;;;;;52.50;41.75;;;;;;;;4972527;28;8950;-80
2023/03/02 02:43:21;;;;;;;;;50.50;45.00;;;;;;;;4980655;28;9738;-79
2023/03/02 02:45:52;;;;;;;;;45.25;43.50;;;;;;;;4975518;28;8869;-79
2023/03/02 02:48:22;;;;;;;;;55.50;49.25;;;;;;;;4974224;28;8887;-76
2023/03/02 02:50:52;;;;;;;;;61.75;53.00;;;;;;;;4976572;28;8865;-83
2023/03/02 02:53:22;;;;;;;;;53.25;46.50;;;;;;;;4976972;28;8880;-78
2023/03/02 02:55:54;;;;;;;;;52.50;46.50;;;;;;;;4980936;28;8969;-80
2023/03/02 02:58:29;;;;;;;;;41.50;39.00;;;;;;;;4982947;28;8919;-81
2023/03/02 03:00:56;;;;;;;;;51.00;43.00;;;;;;;;4979544;28;8858;-81
2023/03/02 03:03:32;;;;;;;;;52.25;46.75;;;;;;;;4946468;28;8998;-80
2023/03/02 03:06:00;;;;;;;;;53.00;47.25;;;;;;;;4978125;28;8872;-81
2023/03/02 03:08:56;;;;;;;;;50.00;44.75;;;;;;;;4980921;28;8904;-81
2023/03/02 03:11:25;;;;;;;;;60.00;49.25;;;;;;;;4978734;28;8862;-79
2023/03/02 03:13:59;;;;;;;;;58.00;50.50;;;;;;;;4980231;28;8877;-79
2023/03/02 03:16:28;;;;;;;;;61.50;53.00;;;;;;;;4982308;28;8871;-79
2023/03/02 03:18:57;;;;;;;;;53.00;46.50;;;;;;;;4982710;28;8865;-79
2023/03/02 03:21:26;;;;;;;;;52.50;47.75;;;;;;;;4983599;28;8865;-80
2023/03/02 03:23:54;;;;;;;;;60.25;49.50;;;;;;;;4979481;28;8871;-79
2023/03/02 03:26:24;;;;;;;;;50.25;44.00;;;;;;;;4986654;28;8853;-81
2023/03/02 03:28:56;;;;;;;;;46.00;42.50;;;;;;;;4986913;28;8896;-79
2023/03/02 03:31:25;;;;;;;;;56.25;46.50;;;;;;;;4985033;28;8896;-79
2023/03/02 03:33:54;;;;;;;;;58.25;51.00;;;;;;;;4978787;28;8873;-80
2023/03/02 03:36:27;;;;;;;;;58.00;48.75;;;;;;;;4982034;28;8879;-79
2023/03/02 03:38:54;;;;;;;;;39.50;38.50;;;;;;;;4982566;28;8948;-79
2023/03/02 03:41:22;;;;;;;;;51.25;46.00;;;;;;;;4975987;28;8884;-78
2023/03/02 03:43:50;;;;;;;;;54.00;48.25;;;;;;;;4975746;28;8898;-78
2023/03/02 03:46:18;;;;;;;;;54.00;47.00;;;;;;;;4982260;28;8895;-79
2023/03/02 03:48:50;;;;;;;;;46.75;43.50;;;;;;;;4978120;28;9035;-80
2023/03/02 03:51:19;;;;;;;;;56.75;46.50;;;;;;;;4983346;28;8898;-78
2023/03/02 03:53:58;;;;;;;;;64.25;54.50;;;;;;;;4978843;28;8857;-79
2023/03/02 03:56:26;;;;;;;;;56.25;48.50;;;;;;;;4977825;28;9600;-78
2023/03/02 03:59:05;;;;;;;;;58.25;48.50;;;;;;;;4976732;28;8804;-78
2023/03/02 04:01:34;;;;;;;;;63.25;52.75;;;;;;;;4983123;28;8858;-79
2023/03/02 04:04:06;;;;;;;;;56.75;48.00;;;;;;;;4983757;28;8888;-79
2023/03/02 04:06:35;;;;;;;;;48.50;44.50;;;;;;;;4978778;28;8864;-78
2023/03/02 04:09:04;;;;;;;;;45.50;44.00;;;;;;;;4980351;28;8853;-78
2023/03/02 04:11:33;;;;;;;;;66.50;55.75;;;;;;;;4983771;28;8882;-79
2023/03/02 04:14:01;;;;;;;;;61.50;52.75;;;;;;;;4977908;28;8903;-79
2023/03/02 04:16:28;;;;;;;;;60.25;51.25;;;;;;;;4978794;28;8869;-79
2023/03/02 04:18:57;;;;;;;;;48.00;44.75;;;;;;;;4980835;28;8877;-79
2023/03/02 04:21:27;;;;;;;;;50.50;45.00;;;;;;;;4980517;28;8877;-80
2023/03/02 04:23:56;;;;;;;;;59.00;51.25;;;;;;;;4995508;28;8979;-81
2023/03/02 04:26:25;;;;;;;;;51.00;47.00;;;;;;;;4983438;28;8865;-79
2023/03/02 04:28:53;;;;;;;;;51.50;46.50;;;;;;;;4968462;28;8908;-78
2023/03/02 04:31:23;;;;;;;;;56.25;47.25;;;;;;;;4962660;28;8880;-79
2023/03/02 04:33:50;;;;;;;;;55.50;49.25;;;;;;;;4978243;28;8875;-79
2023/03/02 04:36:19;;;;;;;;;50.75;45.75;;;;;;;;4981020;28;8869;-80
2023/03/02 04:38:48;;;;;;;;;55.75;49.00;;;;;;;;4977334;28;8889;-82
2023/03/02 04:41:16;;;;;;;;;57.00;49.50;;;;;;;;4985015;28;8908;-79
2023/03/02 04:43:43;;;;;;;;;48.75;45.00;;;;;;;;4964267;28;8883;-79
2023/03/02 04:46:16;;;;;;;;;53.00;48.00;;;;;;;;4976067;28;9281;-78
2023/03/02 04:48:44;;;;;;;;;44.75;42.75;;;;;;;;4981234;28;8869;-80
2023/03/02 04:51:22;;;;;;;;;51.50;47.25;;;;;;;;4979589;28;8882;-79
2023/03/02 04:53:52;;;;;;;;;53.25;47.50;;;;;;;;4981733;28;8833;-78
2023/03/02 04:56:20;;;;;;;;;47.00;44.50;;;;;;;;4981010;28;8853;-78
2023/03/02 04:58:49;;;;;;;;;51.25;44.25;;;;;;;;4978991;28;8873;-78
2023/03/02 05:01:18;;;;;;;;;51.00;44.75;;;;;;;;4977703;28;8861;-78
2023/03/02 05:03:46;;;;;;;;;52.50;47.50;;;;;;;;4977429;28;8883;-78
2023/03/02 05:06:15;;;;;;;;;48.25;43.75;;;;;;;;4979823;28;8863;-78
2023/03/02 05:08:42;;;;;;;;;44.25;41.25;;;;;;;;4983908;28;8907;-77
2023/03/02 05:11:20;;;;;;;;;50.50;45.00;;;;;;;;4980861;28;8999;-77
2023/03/02 05:13:48;;;;;;;;;60.00;51.25;;;;;;;;4977845;28;8962;-78
2023/03/02 05:16:15;;;;;;;;;47.75;43.75;;;;;;;;4981638;28;8871;-77
2023/03/02 05:18:43;;;;;;;;;55.25;49.00;;;;;;;;4981234;28;8877;-78
2023/03/02 05:21:10;;;;;;;;;59.50;51.25;;;;;;;;4981483;28;9001;-78
2023/03/02 05:23:41;;;;;;;;;53.00;47.00;;;;;;;;4984273;28;9010;-78
2023/03/02 05:26:09;;;;;;;;;45.00;41.00;;;;;;;;4983368;28;8980;-79
2023/03/02 05:28:38;;;;;;;;;53.25;47.25;;;;;;;;4985467;28;9730;-78
2023/03/02 05:31:09;;;;;;;;;50.00;45.00;;;;;;;;4981992;28;8852;-77
2023/03/02 05:33:37;;;;;;;;;59.00;50.75;;;;;;;;4982820;28;8852;-80
2023/03/02 05:36:05;;;;;;;;;61.50;51.00;;;;;;;;4982181;28;8864;-78
2023/03/02 05:38:33;;;;;;;;;66.50;54.50;;;;;;;;4984192;28;9003;-78
2023/03/02 05:41:00;;;;;;;;;57.25;48.00;;;;;;;;4979861;28;8871;-81
2023/03/02 05:43:45;;;;;;;;;63.50;53.75;;;;;;;;4980365;28;8879;-81
2023/03/02 05:46:14;;;;;;;;;54.00;46.00;;;;;;;;4976224;28;8858;-79
2023/03/02 05:48:42;;;;;;;;;50.75;47.00;;;;;;;;4978897;28;8886;-82
2023/03/02 05:51:09;;;;;;;;;50.50;45.50;;;;;;;;4981878;28;8953;-82
2023/03/02 05:53:37;;;;;;;;;58.25;51.25;;;;;;;;4980186;28;8877;-81
2023/03/02 05:56:08;;;;;;;;;52.50;47.00;;;;;;;;4978680;28;8882;-82
2023/03/02 05:58:38;;;;;;;;;62.50;52.25;;;;;;;;4978191;28;8849;-82
2023/03/02 06:01:11;;;;;;;;;44.75;43.50;;;;;;;;4978029;28;8897;-82
2023/03/02 06:03:40;;;;;;;;;58.25;48.00;;;;;;;;4983863;28;8970;-80
2023/03/02 06:06:12;;;;;;;;;52.00;47.75;;;;;;;;4983345;28;8854;-81
2023/03/02 06:08:40;;;;;;;;;57.00;48.50;;;;;;;;4964715;28;8986;-81
2023/03/02 06:11:09;;;;;;;;;63.50;53.75;;;;;;;;4977224;28;8877;-82
2023/03/02 06:13:38;;;;;;;;;55.75;49.25;;;;;;;;4973914;28;8880;-81
2023/03/02 06:16:06;;;;;;;;;69.00;58.75;;;;;;;;4976418;28;8892;-80
2023/03/02 06:18:34;;;;;;;;;48.50;45.00;;;;;;;;4980423;28;8873;-82
2023/03/02 06:21:11;;;;;;;;;56.75;50.00;;;;;;;;4975840;28;8959;-82
2023/03/02 06:23:38;;;;;;;;;64.75;54.50;;;;;;;;4993428;28;8893;-82
2023/03/02 06:26:08;;;;;;;;;59.50;50.75;;;;;;;;4976899;28;9714;-83
2023/03/02 06:28:36;;;;;;;;;64.75;54.25;;;;;;;;4976544;28;8928;-84
2023/03/02 06:31:08;;;;;;;;;65.50;54.50;;;;;;;;4977504;28;9664;-82
2023/03/02 06:33:36;;;;;;;;;55.75;47.25;;;;;;;;4977825;28;8979;-81
2023/03/02 06:36:05;;;;;;;;;64.75;54.75;;;;;;;;4961018;28;8976;-78
2023/03/02 06:38:41;;;;;;;;;61.50;53.50;;;;;;;;4981008;28;8891;-76
2023/03/02 06:41:09;;;;;;;;;65.25;55.25;;;;;;;;4963861;28;9335;-76
2023/03/02 06:43:39;;;;;;;;;69.25;55.25;;;;;;;;4984540;28;8885;-82
2023/03/02 06:46:08;;;;;;;;;64.50;54.75;;;;;;;;4985626;28;8856;-82
2023/03/02 06:48:36;;;;;;;;;59.50;49.75;;;;;;;;4984708;28;8850;-81
2023/03/02 06:51:06;;;;;;;;;61.75;52.00;;;;;;;;4988461;28;8908;-83
2023/03/02 06:53:34;;;;;;;;;70.50;59.75;;;;;;;;4990461;28;8885;-84
2023/03/02 06:56:17;;;;;;;;;62.50;53.25;;;;;;;;4989911;28;8916;-82
2023/03/02 06:58:47;;;;;;;;;66.75;56.75;;;;;;;;4994347;28;8849;-84
2023/03/02 07:01:15;;;;;;;;;71.50;57.75;;;;;;;;4981225;28;8872;-84
2023/03/02 07:03:45;;;;;;;;;58.50;52.00;;;;;;;;5000686;28;8875;-82
2023/03/02 07:06:15;;;;;;;;;75.25;63.00;;;;;;;;4982846;28;8859;-82
2023/03/02 07:08:43;;;;;;;;;69.25;55.50;;;;;;;;4999383;28;8853;-81
2023/03/02 07:11:15;;;;;;;;;71.25;60.50;;;;;;;;5000388;28;8877;-82
2023/03/02 07:13:43;;;;;;;;;74.50;61.00;;;;;;;;4978300;28;8876;-81
2023/03/02 07:16:12;;;;;;;;;80.75;66.75;;;;;;;;4992465;28;8850;-83
2023/03/02 07:18:40;;;;;;;;;69.50;58.75;;;;;;;;4992768;28;8886;-83
2023/03/02 07:21:08;;;;;;;;;65.00;54.75;;;;;;;;4990695;28;8810;-86
2023/03/02 07:23:37;;;;;;;;;68.00;54.50;;;;;;;;4991995;28;8883;-85
2023/03/02 07:26:07;;;;;;;;;55.00;49.00;;;;;;;;4994382;28;9583;-83
2023/03/02 07:28:35;;;;;;;;;60.00;50.00;;;;;;;;4988988;28;8845;-82
2023/03/02 07:31:07;;;;;;;;;76.75;64.50;;;;;;;;4998074;28;8849;-82
2023/03/02 07:33:35;;;;;;;;;65.75;54.50;;;;;;;;4990884;28;8987;-81
2023/03/02 07:36:04;;;;;;;;;59.75;51.50;;;;;;;;4979556;28;8857;-77
2023/03/02 07:38:32;;;;;;;;;62.50;54.50;;;;;;;;4980999;28;8893;-77
2023/03/02 07:41:08;;;;;;;;;66.50;57.00;;;;;;;;4977430;28;9334;-77
2023/03/02 07:43:35;;;;;;;;;56.50;48.50;;;;;;;;4971488;28;8897;-78
2023/03/02 07:46:03;;;;;;;;;72.50;58.75;;;;;;;;4983336;28;8955;-79
2023/03/02 07:48:30;;;;;;;;;66.25;56.25;;;;;;;;4978322;28;8861;-79
2023/03/02 07:50:59;;;;;;;;;74.75;59.50;;;;;;;;4980748;28;8956;-78
2023/03/02 07:53:27;;;;;;;;;69.00;54.25;;;;;;;;4980847;28;9310;-78
2023/03/02 07:55:54;;;;;;;;;72.00;55.25;;;;;;;;4978548;28;8881;-80
2023/03/02 07:58:29;;;;;;;;;67.25;55.75;;;;;;;;4985638;28;9674;-78
2023/03/02 08:00:58;;;;;;;;;67.25;55.25;;;;;;;;4981051;28;8861;-80
2023/03/02 08:03:25;;;;;;;;;61.50;53.00;;;;;;;;4975008;28;8870;-77
2023/03/02 08:05:53;;;;;;;;;61.50;52.00;;;;;;;;4976182;28;8877;-77
2023/03/02 08:08:20;;;;;;;;;69.50;54.75;;;;;;;;4978869;28;8894;-75
2023/03/02 08:10:48;;;;;;;;;69.25;57.50;;;;;;;;4976890;28;9276;-81
2023/03/02 08:13:15;;;;;;;;;72.00;57.25;;;;;;;;4984644;28;8896;-77
2023/03/02 08:15:44;;;;;;;;;65.00;51.75;;;;;;;;4980164;28;8877;-76
2023/03/02 08:18:12;;;;;;;;;58.00;51.75;;;;;;;;4978406;28;8909;-75
2023/03/02 08:20:39;;;;;;;;;59.75;51.00;;;;;;;;4981592;28;9662;-79
2023/03/02 08:23:07;;;;;;;;;67.25;52.75;;;;;;;;4980015;28;8872;-76
2023/03/02 08:25:34;;;;;;;;;68.50;56.75;;;;;;;;4977599;28;8844;-75
2023/03/02 08:28:02;;;;;;;;;67.75;50.75;;;;;;;;4977842;28;8864;-74
2023/03/02 08:30:29;;;;;;;;;69.75;56.25;;;;;;;;4974641;28;8887;-75
2023/03/02 08:32:58;;;;;;;;;73.00;58.50;;;;;;;;4978117;28;8880;-77
2023/03/02 08:35:25;;;;;;;;;60.33;52.67;;;;;;;;4973998;28;9043;-76
2023/03/02 08:37:53;;;;;;;;;75.00;58.75;;;;;;;;4976358;28;8856;-76
2023/03/02 08:40:20;;;;;;;;;65.33;49.33;;;;;;;;4976143;28;9235;-76
2023/03/02 08:42:48;;;;;;;;;63.67;54.00;;;;;;;;4974981;28;8844;-79
2023/03/02 08:45:18;;;;;;;;;78.00;62.00;;;;;;;;4960895;28;9004;-74
2023/03/02 08:47:45;;;;;;;;;63.00;51.33;;;;;;;;4981265;28;8983;-76
2023/03/02 08:50:14;;;;;;;;;58.67;49.67;;;;;;;;4974074;28;8907;-72
2023/03/02 08:52:42;;;;;;;;;66.00;54.33;;;;;;;;4979010;28;8895;-77
2023/03/02 08:55:10;;;;;;;;;73.67;57.00;;;;;;;;4974518;28;8877;-76
2023/03/02 08:57:40;;;;;;;;;64.00;50.00;;;;;;;;4980082;28;8865;-75
2023/03/02 09:00:13;;;;;;;;;61.00;52.33;;;;;;;;4975790;28;8849;-76
2023/03/02 09:02:40;;;;;;;;;57.33;50.00;;;;;;;;4977955;28;8861;-75
2023/03/02 09:05:09;;;;;;;;;61.67;51.33;;;;;;;;4978271;28;8869;-75
2023/03/02 09:07:38;;;;;;;;;56.33;46.67;;;;;;;;4975426;28;8993;-76
2023/03/02 09:10:05;;;;;;;;;69.00;57.67;;;;;;;;4959681;28;8856;-76
2023/03/02 09:12:33;;;;;;;;;61.00;50.00;;;;;;;;4975581;28;8873;-76
2023/03/02 09:15:00;;;;;;;;;62.00;52.00;;;;;;;;4981453;28;8853;-75
2023/03/02 09:17:28;;;;;;;;;67.00;52.67;;;;;;;;4978969;28;8881;-78
2023/03/02 09:19:56;;;;;;;;;59.33;48.33;;;;;;;;4984238;28;8877;-78
2023/03/02 09:22:25;;;;;;;;;66.00;50.33;;;;;;;;4980109;28;8861;-78
2023/03/02 09:24:53;;;;;;;;;60.33;50.67;;;;;;;;4961740;28;8892;-79
2023/03/02 09:27:23;;;;;;;;;60.33;50.33;;;;;;;;4979244;28;8876;-78
2023/03/02 09:29:50;;;;;;;;;56.00;47.33;;;;;;;;4980777;28;8955;-78
2023/03/02 09:32:18;;;;;;;;;60.33;51.33;;;;;;;;4971930;28;8900;-77
2023/03/02 09:34:45;;;;;;;;;60.00;49.33;;;;;;;;4979762;28;8873;-77
2023/03/02 09:37:13;;;;;;;;;57.33;45.67;;;;;;;;4979695;28;8911;-78
2023/03/02 09:39:40;;;;;;;;;58.67;46.67;;;;;;;;4977131;28;9665;-78
2023/03/02 09:42:30;;;;;;;;;58.67;48.00;;;;;;;;4979705;28;8874;-79
2023/03/02 09:45:10;;;;;;;;;47.33;41.33;;;;;;;;4974809;28;9453;-79
2023/03/02 09:47:46;;;;;;;;;46.67;43.00;;;;;;;;4978679;28;8870;-79
2023/03/02 09:50:29;;;;;;;;;60.00;50.33;;;;;;;;4979889;28;8899;-78
2023/03/02 09:53:09;;;;;;;;;55.00;43.00;;;;;;;;4985296;28;8861;-78
2023/03/02 09:55:38;;;;;;;;;57.67;46.67;;;;;;;;4983325;28;8859;-78
2023/03/02 09:58:13;;;;;;;;;55.00;44.33;;;;;;;;4975466;28;11798;-77
2023/03/02 10:00:43;;;;;;;;;55.33;46.67;;;;;;;;4981307;28;11623;-80
2023/03/02 10:03:19;;;;;;;;;51.75;44.00;;;;;;;;4980376;28;11633;-78
2023/03/02 10:05:52;;;;;;;;;60.75;51.75;;;;;;;;4983831;28;11796;-79
2023/03/02 10:08:27;;;;;;;;;50.00;44.00;;;;;;;;4983382;28;11690;-79
2023/03/02 10:11:07;;;;;;;;;54.00;46.50;;;;;;;;4983687;28;11635;-79
2023/03/02 10:13:45;;;;;;;;;57.75;48.00;;;;;;;;4988443;28;11618;-77
2023/03/02 10:16:19;;;;;;;;;53.50;45.50;;;;;;;;4979773;28;11823;-78
2023/03/02 10:18:50;;;;;;;;;53.25;42.75;;;;;;;;4982846;28;12441;-78
2023/03/02 10:21:26;;;;;;;;;55.25;46.75;;;;;;;;4985660;28;11732;-78
2023/03/02 10:23:57;;;;;;;;;48.50;42.00;;;;;;;;4982906;28;11763;-78
2023/03/02 10:26:34;;;;;;;;;55.50;45.75;;;;;;;;4992636;28;12693;-79
2023/03/02 10:29:24;;;;;;;;;47.50;39.25;;;;;;;;4983741;28;11695;-78
2023/03/02 10:31:57;;;;;;;;;58.25;50.00;;;;;;;;4990409;28;11637;-78
2023/03/02 10:34:26;;;;;;;;;52.75;43.00;;;;;;;;4983165;28;11645;-79
2023/03/02 10:36:54;;;;;;;;;54.25;43.50;;;;;;;;4984105;28;11652;-78
2023/03/02 10:39:23;;;;;;;;;48.00;39.75;;;;;;;;4985231;28;11764;-79
2023/03/02 10:41:55;;;;;;;;;48.00;41.25;;;;;;;;4990030;28;11600;-80
2023/03/02 10:44:29;;;;;;;;;48.50;39.25;;;;;;;;4984107;28;11644;-79
2023/03/02 10:47:02;;;;;;;;;47.25;40.00;;;;;;;;4978387;28;11157;-79
2023/03/02 10:49:33;;;;;;;;;44.25;39.50;;;;;;;;4987492;28;11644;-79
2023/03/02 10:52:16;;;;;;;;;49.00;42.00;;;;;;;;4984735;28;11629;-77
2023/03/02 10:54:46;;;;;;;;;47.75;40.75;;;;;;;;4980876;28;11658;-79
2023/03/02 10:57:38;;;;;;;;;42.25;38.25;;;;;;;;4973764;28;11639;-76
2023/03/02 11:00:17;;;;;;;;;54.00;46.25;;;;;;;;4950926;28;11673;-77
2023/03/02 11:02:52;;;;;;;;;49.00;41.00;;;;;;;;4975646;28;11633;-75
2023/03/02 11:05:28;;;;;;;;;55.00;46.00;;;;;;;;4974110;28;11629;-80
2023/03/02 11:07:56;;;;;;;;;53.50;43.50;;;;;;;;4983075;28;11721;-74
2023/03/02 11:10:26;;;;;;;;;48.75;40.25;;;;;;;;4981052;28;11656;-77
2023/03/02 11:12:54;;;;;;;;;49.75;41.00;;;;;;;;4974488;28;11625;-75
2023/03/02 11:15:41;;;;;;;;;55.25;44.75;;;;;;;;4983800;28;11779;-77
2023/03/02 11:18:22;;;;;;;;;39.75;37.00;;;;;;;;4981827;28;11719;-77
2023/03/02 11:20:54;;;;;;;;;50.25;39.75;;;;;;;;4974458;28;11675;-76
2023/03/02 11:23:40;;;;;;;;;54.50;44.25;;;;;;;;4981737;28;11644;-75
2023/03/02 11:26:15;;;;;;;;;52.00;43.00;;;;;;;;4984519;28;11635;-75
2023/03/02 11:28:48;;;;;;;;;49.00;41.50;;;;;;;;4982174;28;11727;-76
2023/03/02 11:31:29;;;;;;;;;41.00;37.00;;;;;;;;4983515;28;12817;-76
2023/03/02 11:34:10;;;;;;;;;59.25;48.25;;;;;;;;4979328;28;11587;-76
2023/03/02 11:36:45;;;;;;;;;41.50;38.00;;;;;;;;4993405;28;11629;-76
2023/03/02 11:39:39;;;;;;;;;51.50;40.50;;;;;;;;4985311;28;11611;-75
2023/03/02 11:42:18;;;;;;;;;51.75;42.75;;;;;;;;4986113;28;11754;-76
2023/03/02 11:44:49;;;;;;;;;51.25;44.00;;;;;;;;4979145;28;11642;-78
2023/03/02 11:47:19;;;;;;;;;47.00;40.75;;;;;;;;4985058;28;11667;-74
2023/03/02 11:49:53;;;;;;;;;52.75;44.25;;;;;;;;4992578;28;11553;-75
2023/03/02 11:52:25;;;;;;;;;42.25;38.25;;;;;;;;4998723;28;11570;-74
2023/03/02 11:54:57;;;;;;;;;52.25;44.25;;;;;;;;4991891;28;11574;-77
2023/03/02 11:57:30;;;;;;;;;51.00;43.25;;;;;;;;4993415;28;11594;-76
2023/03/02 11:59:59;;;;;;;;;36.50;35.25;;;;;;;;4993168;28;11707;-71
2023/03/02 12:02:32;;;;;;;;;52.00;44.00;;;;;;;;4995223;28;11555;-75
2023/03/02 12:05:04;;;;;;;;;54.50;45.75;;;;;;;;4980760;28;11724;-75
2023/03/02 12:07:37;;;;;;;;;54.50;43.50;;;;;;;;4981563;28;11657;-76
2023/03/02 12:10:08;;;;;;;;;40.25;37.00;;;;;;;;4975964;28;11830;-74
2023/03/02 12:12:51;;;;;;;;;51.75;43.75;;;;;;;;4968896;28;11638;-75
2023/03/02 12:15:38;;;;;;;;;48.75;41.00;;;;;;;;4983504;28;11567;-76
2023/03/02 12:18:49;;;;;;;;;50.25;41.50;;;;;;;;4984139;28;11707;-76
2023/03/02 12:21:21;;;;;;;;;52.50;43.50;;;;;;;;4921044;28;11577;-78
2023/03/02 12:24:00;;;;;;;;;51.50;42.25;;;;;;;;4923808;29;11621;-78
2023/03/02 12:26:38;;;;;;;;;54.50;46.25;;;;;;;;4920813;28;11614;-79
2023/03/02 12:29:23;;;;;;;;;52.75;43.25;;;;;;;;4940892;28;11573;-78
2023/03/02 12:31:52;;;;;;;;;52.00;41.50;;;;;;;;4983414;28;11614;-80
2023/03/02 12:34:34;;;;;;;;;45.50;40.25;;;;;;;;4981009;28;11612;-79
2023/03/02 12:37:08;;;;;;;;;44.00;39.75;;;;;;;;4978839;28;11717;-77
2023/03/02 12:39:58;;;;;;;;;58.75;49.25;;;;;;;;4958387;28;11578;-74
2023/03/02 12:42:50;;;;;;;;;53.75;43.50;;;;;;;;4963595;28;11635;-77
2023/03/02 12:45:30;;;;;;;;;44.00;36.75;;;;;;;;4959037;28;11620;-78
2023/03/02 12:48:01;;;;;;;;;55.75;42.75;;;;;;;;4957916;28;11571;-78
2023/03/02 12:50:38;;;;;;;;;51.75;43.50;;;;;;;;4957765;28;11624;-76
2023/03/02 12:53:18;;;;;;;;;51.50;40.75;;;;;;;;4962127;28;11599;-87
2023/03/02 12:55:45;;;;;;;;;48.00;39.75;;;;;;;;4963751;28;11452;-77
2023/03/02 12:58:19;;;;;;;;;51.50;40.75;;;;;;;;4959216;28;11366;-74
2023/03/02 13:00:51;;;;;;;;;57.50;46.00;;;;;;;;4954641;28;11317;-76
2023/03/02 13:03:20;;;;;;;;;52.75;44.50;;;;;;;;4954531;28;11736;-77
2023/03/02 13:05:49;;;;;;;;;58.25;45.50;;;;;;;;4962596;28;11706;-77
2023/03/02 13:08:19;;;;;;;;;45.25;39.00;;;;;;;;4964728;28;11244;-78
2023/03/02 13:10:52;;;;;;;;;51.50;43.75;;;;;;;;4958473;28;11126;-77
2023/03/02 13:13:23;;;;;;;;;52.50;42.00;;;;;;;;4959833;28;11073;-77
2023/03/02 13:15:53;;;;;;;;;57.00;46.75;;;;;;;;4953959;28;11050;-77
2023/03/02 13:18:21;;;;;;;;;61.25;50.25;;;;;;;;4957683;28;11297;-77
2023/03/02 13:20:51;;;;;;;;;43.25;38.25;;;;;;;;4959959;28;11118;-76
2023/03/02 13:23:21;;;;;;;;;52.50;44.00;;;;;;;;4962438;28;10601;-78
2023/03/02 13:25:50;;;;;;;;;48.75;41.25;;;;;;;;4958357;28;10838;-77
2023/03/02 13:28:27;;;;;;;;;46.50;39.25;;;;;;;;4967146;28;10555;-79
2023/03/02 13:30:59;;;;;;;;;50.75;43.50;;;;;;;;4965897;28;10569;-79
2023/03/02 13:33:28;;;;;;;;;46.50;38.00;;;;;;;;4966388;28;10665;-78
2023/03/02 13:35:56;;;;;;;;;50.75;42.25;;;;;;;;4969994;28;10300;-79
2023/03/02 13:38:25;;;;;;;;;48.75;40.00;;;;;;;;4970823;28;10502;-78
2023/03/02 13:40:54;;;;;;;;;44.50;38.50;;;;;;;;4967114;28;10395;-78
2023/03/02 13:43:30;;;;;;;;;50.75;42.25;;;;;;;;4966739;28;10457;-78
2023/03/02 13:45:59;;;;;;;;;51.75;42.75;;;;;;;;4966244;28;10575;-79
2023/03/02 13:48:28;;;;;;;;;52.00;42.75;;;;;;;;4962988;28;10738;-78
2023/03/02 13:51:06;;;;;;;;;49.75;40.75;;;;;;;;4955042;28;10716;-77
2023/03/02 13:53:36;;;;;;;;;52.00;44.50;;;;;;;;4957200;28;10433;-77
2023/03/02 13:56:04;;;;;;;;;61.00;48.00;;;;;;;;4959545;28;11612;-78
2023/03/02 13:58:38;;;;;;;;;54.75;44.25;;;;;;;;4960883;28;11015;-78
2023/03/02 14:01:07;;;;;;;;;49.75;42.25;;;;;;;;4957650;28;10691;-77
2023/03/02 14:03:35;;;;;;;;;51.25;42.75;;;;;;;;4960848;28;10856;-78
2023/03/02 14:06:05;;;;;;;;;53.25;45.00;;;;;;;;4955236;28;11581;-78
2023/03/02 14:08:32;;;;;;;;;51.50;42.75;;;;;;;;4961312;28;10928;-77
2023/03/02 14:11:01;;;;;;;;;44.50;40.00;;;;;;;;4957294;28;10800;-77
2023/03/02 14:13:34;;;;;;;;;50.50;40.75;;;;;;;;4954875;28;11208;-76
2023/03/02 14:16:01;;;;;;;;;51.50;42.00;;;;;;;;4958692;28;10847;-77
2023/03/02 14:18:32;;;;;;;;;44.25;39.25;;;;;;;;4956721;28;11618;-78
2023/03/02 14:21:01;;;;;;;;;51.00;41.75;;;;;;;;4961500;28;10864;-76
2023/03/02 14:23:30;;;;;;;;;57.50;47.50;;;;;;;;4960910;28;11491;-76
2023/03/02 14:25:58;;;;;;;;;54.50;44.00;;;;;;;;4960640;28;11126;-81
2023/03/02 14:28:38;;;;;;;;;51.50;42.50;;;;;;;;4957456;28;10794;-78
2023/03/02 14:31:08;;;;;;;;;48.25;41.25;;;;;;;;4956513;28;10791;-79
2023/03/02 14:33:36;;;;;;;;;50.00;40.00;;;;;;;;4959423;28;10887;-77
2023/03/02 14:36:19;;;;;;;;;52.25;44.50;;;;;;;;4971533;28;10802;-79
2023/03/02 14:38:48;;;;;;;;;52.50;42.50;;;;;;;;4983707;28;11642;-79
2023/03/02 14:41:26;;;;;;;;;49.50;41.25;;;;;;;;4976152;28;11574;-77
2023/03/02 14:43:56;;;;;;;;;46.50;40.00;;;;;;;;4972571;28;10857;-79
2023/03/02 14:46:24;;;;;;;;;54.00;43.00;;;;;;;;4978440;28;10461;-78
2023/03/02 14:51:43;;;;;;;;;53.75;43.00;;;;;;;;4980745;28;10776;-80